createdAt,value
2019-01-20T04:00:57.912Z,96.81
2019-01-20T04:01:58.094Z,97.56
2019-01-20T04:02:58.199Z,97.56
2019-01-20T04:03:58.341Z,97.28
2019-01-20T04:04:58.434Z,97.56
2019-01-20T04:05:58.634Z,97.94
2019-01-20T04:06:58.746Z,97.47
2019-01-20T04:07:58.924Z,98.23
2019-01-20T04:08:59.083Z,98.23
2019-01-20T04:09:59.201Z,98.13
2019-01-20T04:10:59.381Z,98.32
2019-01-20T04:11:59.563Z,97.56
2019-01-20T04:12:59.758Z,97.94
2019-01-20T04:13:59.854Z,97.75
2019-01-20T04:14:59.979Z,98.23
2019-01-20T04:16:00.173Z,97.75
2019-01-20T04:17:00.301Z,97.75
2019-01-20T04:18:00.525Z,98.04
2019-01-20T04:19:00.583Z,97.28
2019-01-20T04:20:00.746Z,97.28
2019-01-20T04:21:00.897Z,97.56
2019-01-20T04:22:01.035Z,97.38
2019-01-20T04:23:01.275Z,97.47
2019-01-20T04:24:01.394Z,97.28
2019-01-20T04:25:01.529Z,97.47
2019-01-20T04:26:01.666Z,97.19
2019-01-20T04:27:01.835Z,97.47
2019-01-20T04:28:02.047Z,97.09
2019-01-20T04:29:02.181Z,97.47
2019-01-20T04:30:02.277Z,97.38
2019-01-20T04:31:02.486Z,97.66
2019-01-20T04:32:02.617Z,97.47
2019-01-20T04:33:02.742Z,97.47
2019-01-20T04:34:02.948Z,97.28
2019-01-20T04:35:03.075Z,96.91
2019-01-20T04:36:03.243Z,96.44
2019-01-20T04:37:03.364Z,96.62
2019-01-20T04:38:03.513Z,96.34
2019-01-20T04:39:03.666Z,95.78
2019-01-20T04:40:03.918Z,95.68
2019-01-20T04:41:04.002Z,95.97
2019-01-20T04:42:04.160Z,95.97
2019-01-20T04:43:04.278Z,96.34
2019-01-20T04:44:04.459Z,96.34
2019-01-20T04:45:04.642Z,96.44
2019-01-20T04:46:04.851Z,96.62
2019-01-20T04:47:04.894Z,96.62
2019-01-20T04:48:05.042Z,96.44
2019-01-20T04:49:05.274Z,96.34
2019-01-20T04:50:05.367Z,96.62
2019-01-20T04:51:05.481Z,96.72
2019-01-20T04:52:05.716Z,96.44
2019-01-20T04:53:05.876Z,96.34
2019-01-20T04:54:06.010Z,96.53
2019-01-20T04:55:06.119Z,96.34
2019-01-20T04:56:06.303Z,96.62
2019-01-20T04:57:06.462Z,96.62
2019-01-20T04:58:06.588Z,96.53
2019-01-20T04:59:06.716Z,96.72
2019-01-20T05:00:07.008Z,96.25
2019-01-20T05:01:07.157Z,96.44
2019-01-20T05:02:07.195Z,95.78
2019-01-20T05:03:07.379Z,96.15
2019-01-20T05:04:07.558Z,96.15
2019-01-20T05:05:07.689Z,96.25
2019-01-20T05:06:07.895Z,95.40
2019-01-20T05:07:08.126Z,96.15
2019-01-20T05:08:08.264Z,96.15
2019-01-20T05:09:08.450Z,96.81
2019-01-20T05:10:08.609Z,97.00
2019-01-20T05:11:08.710Z,97.47
2019-01-20T05:12:08.890Z,97.47
2019-01-20T05:13:09.096Z,97.47
2019-01-20T05:14:09.210Z,96.81
2019-01-20T05:15:09.336Z,97.09
2019-01-20T05:16:09.468Z,97.28
2019-01-20T05:17:09.670Z,97.28
2019-01-20T05:18:09.812Z,97.56
2019-01-20T05:19:09.976Z,97.66
2019-01-20T05:20:10.175Z,97.47
2019-01-20T05:21:10.266Z,97.28
2019-01-20T05:22:10.436Z,97.56
2019-01-20T05:23:10.598Z,97.28
2019-01-20T05:24:10.745Z,97.38
2019-01-20T05:25:10.931Z,97.19
2019-01-20T05:26:11.028Z,96.72
2019-01-20T05:27:11.241Z,96.91
2019-01-20T05:28:11.333Z,96.62
2019-01-20T05:29:11.576Z,96.91
2019-01-20T05:30:11.668Z,96.81
2019-01-20T05:31:11.874Z,96.62
2019-01-20T05:32:12.040Z,96.44
2019-01-20T05:33:12.273Z,96.62
2019-01-20T05:34:12.323Z,96.62
2019-01-20T05:35:12.586Z,96.25
2019-01-20T05:36:12.721Z,96.53
2019-01-20T05:37:12.880Z,96.53
2019-01-20T05:38:12.997Z,95.97
2019-01-20T05:39:13.229Z,95.78
2019-01-20T05:40:13.427Z,96.15
2019-01-20T05:41:13.567Z,95.12
2019-01-20T05:42:13.791Z,95.50
2019-01-20T05:43:13.944Z,95.59
2019-01-20T05:44:14.051Z,95.40
2019-01-20T05:45:14.263Z,95.40
2019-01-20T05:46:14.470Z,96.25
2019-01-20T05:47:14.639Z,96.15
2019-01-20T05:48:14.691Z,96.15
2019-01-20T05:49:14.886Z,96.15
2019-01-20T05:50:15.039Z,96.15
2019-01-20T05:51:15.214Z,96.15
2019-01-20T05:52:15.313Z,95.97
2019-01-20T05:53:15.444Z,96.06
2019-01-20T05:54:15.632Z,95.78
2019-01-20T05:55:15.796Z,95.78
2019-01-20T05:56:16.032Z,95.78
2019-01-20T05:57:16.071Z,96.06
2019-01-20T05:58:16.256Z,95.97
2019-01-20T05:59:16.440Z,96.44
2019-01-20T06:00:16.615Z,96.62
2019-01-20T06:01:16.681Z,96.62
2019-01-20T06:02:16.901Z,95.87
2019-01-20T06:03:17.106Z,95.78
2019-01-20T06:04:17.232Z,95.97
2019-01-20T06:05:17.358Z,96.06
2019-01-20T06:06:17.527Z,95.78
2019-01-20T06:07:17.689Z,95.78
2019-01-20T06:08:17.815Z,95.87
2019-01-20T06:09:18.077Z,96.15
2019-01-20T06:10:18.192Z,96.06
2019-01-20T06:11:18.307Z,96.06
2019-01-20T06:12:18.510Z,96.72
2019-01-20T06:13:18.615Z,96.72
2019-01-20T06:14:18.768Z,96.44
2019-01-20T06:15:18.901Z,96.34
2019-01-20T06:16:19.087Z,96.91
2019-01-20T06:17:19.963Z,96.34
2019-01-20T06:18:19.639Z,96.72
2019-01-20T06:19:19.512Z,96.81
2019-01-20T06:20:19.701Z,96.62
2019-01-20T06:21:19.915Z,96.72
2019-01-20T06:22:37.758Z,97.00
2019-01-20T06:23:22.351Z,97.00
2019-01-20T06:24:22.424Z,96.91
2019-01-20T06:25:21.272Z,96.91
2019-01-20T06:26:20.898Z,96.72
2019-01-20T06:27:21.094Z,96.91
2019-01-20T06:28:21.095Z,96.72
2019-01-20T06:29:21.330Z,96.72
2019-01-20T06:30:21.535Z,96.72
2019-01-20T06:31:21.653Z,97.28
2019-01-20T06:32:21.847Z,97.28
2019-01-20T06:33:21.883Z,96.72
2019-01-20T06:34:22.027Z,97.28
2019-01-20T06:35:22.308Z,97.66
2019-01-20T06:36:22.655Z,97.56
2019-01-20T06:37:22.575Z,97.56
2019-01-20T06:38:24.070Z,97.28
2019-01-20T06:39:23.211Z,97.66
2019-01-20T06:40:23.208Z,97.75
2019-01-20T06:41:23.512Z,97.56
2019-01-20T06:42:24.002Z,97.66
2019-01-20T06:43:24.543Z,97.56
2019-01-20T06:44:24.009Z,97.47
2019-01-20T06:45:24.022Z,97.94
2019-01-20T06:46:24.216Z,97.85
2019-01-20T06:47:24.465Z,97.56
2019-01-20T06:48:24.507Z,97.38
2019-01-20T06:49:24.829Z,97.47
2019-01-20T06:50:25.030Z,97.28
2019-01-20T06:51:25.098Z,97.47
2019-01-20T06:52:25.523Z,97.47
2019-01-20T06:53:25.629Z,97.00
2019-01-20T06:54:25.590Z,97.09
2019-01-20T06:55:25.806Z,96.91
2019-01-20T06:56:25.921Z,96.62
2019-01-20T06:57:26.196Z,96.81
2019-01-20T06:58:26.501Z,96.91
2019-01-20T06:59:26.673Z,97.66
2019-01-20T07:00:26.632Z,97.75
2019-01-20T07:01:26.971Z,97.66
2019-01-20T07:02:27.062Z,97.47
2019-01-20T07:03:27.258Z,97.19
2019-01-20T07:04:27.385Z,96.72
2019-01-20T07:05:27.525Z,96.91
2019-01-20T07:06:27.572Z,96.81
2019-01-20T07:07:28.420Z,97.47
2019-01-20T07:08:27.989Z,97.28
2019-01-20T07:09:28.049Z,97.28
2019-01-20T07:10:28.273Z,97.28
2019-01-20T07:11:29.012Z,97.28
2019-01-20T07:12:28.728Z,96.91
2019-01-20T07:13:28.988Z,96.72
2019-01-20T07:14:29.646Z,96.62
2019-01-20T07:15:29.071Z,96.44
2019-01-20T07:16:29.313Z,96.25
2019-01-20T07:17:29.821Z,96.53
2019-01-20T07:18:31.574Z,96.62
2019-01-20T07:19:30.201Z,96.15
2019-01-20T07:20:30.539Z,95.40
2019-01-20T07:21:30.831Z,95.31
2019-01-20T07:22:30.482Z,95.21
2019-01-20T07:23:30.703Z,95.02
2019-01-20T07:24:31.470Z,94.41
2019-01-20T07:25:32.075Z,94.46
2019-01-20T07:26:30.916Z,94.60
2019-01-20T07:27:31.127Z,94.60
2019-01-20T07:28:31.174Z,94.31
2019-01-20T07:29:31.933Z,94.41
2019-01-20T07:30:31.446Z,94.22
2019-01-20T07:31:31.728Z,94.93
2019-01-20T07:32:32.056Z,95.50
2019-01-20T07:33:32.282Z,95.50
2019-01-20T07:34:32.297Z,95.54
2019-01-20T07:35:32.214Z,95.40
2019-01-20T07:36:32.791Z,95.21
2019-01-20T07:37:32.908Z,95.35
2019-01-20T07:38:32.650Z,95.54
2019-01-20T07:39:33.077Z,95.31
2019-01-20T07:40:33.093Z,95.50
2019-01-20T07:41:33.359Z,94.93
2019-01-20T07:42:33.641Z,95.40
2019-01-20T07:43:33.658Z,95.40
2019-01-20T07:44:33.728Z,95.50
2019-01-20T07:45:33.921Z,95.50
2019-01-20T07:46:34.381Z,95.02
2019-01-20T07:47:34.243Z,94.36
2019-01-20T07:48:34.415Z,94.36
2019-01-20T07:49:39.118Z,94.74
2019-01-20T07:52:28.161Z,94.46
2019-01-20T07:53:41.758Z,94.27
2019-01-20T07:54:28.996Z,94.83
2019-01-20T07:55:39.544Z,95.12
2019-01-20T07:56:29.270Z,95.78
2019-01-20T07:57:33.161Z,95.21
2019-01-20T07:58:29.293Z,95.02
2019-01-20T07:59:30.915Z,95.40
2019-01-20T08:02:16.579Z,95.50
2019-01-20T08:03:16.037Z,95.68
2019-01-20T08:04:15.623Z,95.12
2019-01-20T08:05:15.051Z,94.93
2019-01-20T08:06:15.174Z,94.93
2019-01-20T08:07:15.320Z,94.83
2019-01-20T08:08:15.458Z,94.51
2019-01-20T08:09:15.659Z,94.03
2019-01-20T08:10:15.840Z,93.94
2019-01-20T08:15:48.215Z,89.79
2019-01-20T08:16:48.617Z,89.32
2019-01-20T08:17:48.465Z,88.47
2019-01-20T08:18:48.883Z,88.23
2019-01-20T08:19:49.555Z,87.19
2019-01-20T08:20:49.001Z,86.44
2019-01-20T08:21:49.164Z,86.15
2019-01-20T08:22:49.052Z,85.49
2019-01-20T08:29:18.851Z,83.27
2019-01-20T08:30:24.917Z,82.51
2019-01-20T08:31:18.960Z,81.38
2019-01-20T08:32:20.868Z,81.67
2019-01-20T08:33:19.406Z,81.57
2019-01-20T08:34:19.833Z,82.51
2019-01-20T08:35:19.914Z,82.95
2019-01-20T08:36:19.971Z,84.08
2019-01-20T08:37:20.301Z,85.11
2019-01-20T08:38:22.980Z,85.30
2019-01-20T08:41:05.310Z,85.44
2019-01-20T08:42:03.629Z,85.72
2019-01-20T08:43:04.065Z,84.88
2019-01-20T08:44:03.374Z,84.59
2019-01-20T08:45:04.172Z,83.93
2019-01-20T08:46:02.361Z,83.55
2019-01-20T08:47:02.306Z,83.12
2019-01-20T08:48:02.713Z,82.46
2019-01-20T08:49:02.664Z,82.28
2019-01-20T08:50:03.524Z,82.84
2019-01-20T08:51:23.092Z,83.03
2019-01-20T08:52:05.661Z,83.12
2019-01-20T08:53:03.747Z,82.46
2019-01-20T08:54:03.739Z,81.42
2019-01-20T08:55:04.005Z,80.76
2019-01-20T08:56:05.380Z,80.38
2019-01-20T08:57:07.535Z,79.82
2019-01-20T08:58:05.221Z,79.63
2019-01-20T08:59:04.792Z,79.06
2019-01-20T09:00:06.361Z,79.29
2019-01-20T09:01:21.308Z,79.29
2019-01-20T09:02:09.092Z,79.29
2019-01-20T09:03:07.893Z,79.29
2019-01-20T09:04:07.604Z,78.81
2019-01-20T09:05:11.631Z,78.63
2019-01-20T09:06:12.141Z,78.72
2019-01-20T09:07:08.612Z,78.63
2019-01-20T09:10:14.085Z,78.16
2019-01-20T09:11:14.120Z,78.59
2019-01-20T09:12:14.561Z,79.25
2019-01-20T09:13:14.431Z,78.87
2019-01-20T09:14:12.267Z,79.10
2019-01-20T09:15:12.577Z,79.00
2019-01-20T09:16:12.500Z,78.81
2019-01-20T09:17:13.512Z,78.16
2019-01-20T09:18:12.656Z,78.06
2019-01-20T09:19:12.842Z,78.91
2019-01-20T09:20:13.294Z,78.91
2019-01-20T09:21:13.344Z,78.25
2019-01-20T09:22:13.449Z,78.06
2019-01-20T09:23:13.584Z,77.53
2019-01-20T09:24:13.720Z,76.87
2019-01-20T09:25:14.102Z,76.25
2019-01-20T09:26:14.344Z,75.02
2019-01-20T09:33:43.837Z,70.23
2019-01-20T09:34:44.307Z,70.51
2019-01-20T09:35:42.972Z,70.79
2019-01-20T09:36:42.168Z,71.74
2019-01-20T09:37:42.224Z,71.84
2019-01-20T09:38:42.283Z,71.27
2019-01-20T09:39:42.506Z,70.86
2019-01-20T09:40:42.694Z,70.89
2019-01-20T09:41:43.138Z,70.61
2019-01-20T09:42:43.091Z,70.45
2019-01-20T09:43:47.081Z,68.65
2019-01-20T09:44:43.824Z,68.27
2019-01-20T09:45:43.403Z,67.05
2019-01-20T09:46:43.956Z,66.09
2019-01-20T09:47:44.267Z,66.09
2019-01-20T09:48:44.048Z,66.00
2019-01-20T09:49:44.447Z,66.19
2019-01-20T09:50:44.335Z,66.57
2019-01-20T09:51:44.594Z,66.28
2019-01-20T09:52:44.537Z,66.57
2019-01-20T09:53:44.901Z,67.33
2019-01-20T09:54:45.010Z,67.46
2019-01-20T09:55:45.206Z,66.89
2019-01-20T09:56:45.277Z,65.56
2019-01-20T09:57:45.549Z,64.46
2019-01-20T09:58:46.371Z,63.98
2019-01-20T09:59:45.834Z,64.33
2019-01-20T10:00:46.062Z,63.89
2019-01-20T10:01:46.419Z,64.08
2019-01-20T10:02:46.515Z,63.07
2019-01-20T10:03:46.905Z,61.46
2019-01-20T10:04:46.709Z,61.27
2019-01-20T10:05:46.870Z,60.82
2019-01-20T10:06:48.152Z,59.40
2019-01-20T10:07:47.687Z,58.29
2019-01-20T10:08:47.731Z,57.15
2019-01-20T10:09:47.673Z,57.12
2019-01-20T10:10:47.918Z,57.24
2019-01-20T10:11:48.026Z,56.96
2019-01-20T10:12:48.412Z,56.20
2019-01-20T10:13:54.789Z,56.32
2019-01-20T10:14:48.742Z,55.76
2019-01-20T10:15:52.140Z,55.18
2019-01-20T10:16:49.840Z,54.80
2019-01-20T10:17:48.816Z,54.71
2019-01-20T10:18:48.988Z,54.93
2019-01-20T10:19:49.156Z,55.50
2019-01-20T10:20:49.198Z,54.93
2019-01-20T10:21:49.446Z,54.36
2019-01-20T10:22:49.656Z,54.19
2019-01-20T10:23:51.295Z,54.36
2019-01-20T10:24:50.076Z,54.29
2019-01-20T10:25:51.996Z,54.38
2019-01-20T10:26:50.544Z,54.38
2019-01-20T10:27:50.543Z,54.10
2019-01-20T10:28:50.708Z,54.19
2019-01-20T10:29:50.858Z,53.05
2019-01-20T10:31:05.905Z,52.61
2019-01-20T10:31:54.681Z,52.61
2019-01-20T10:32:54.971Z,52.80
2019-01-20T10:33:53.648Z,52.01
2019-01-20T10:34:54.059Z,52.51
2019-01-20T10:35:54.390Z,51.37
2019-01-20T10:36:52.552Z,51.37
2019-01-20T10:37:52.288Z,51.37
2019-01-20T10:38:52.518Z,50.32
2019-01-20T10:39:52.668Z,51.20
2019-01-20T10:40:52.856Z,51.46
2019-01-20T10:41:53.510Z,50.79
2019-01-20T10:42:53.110Z,51.18
2019-01-20T10:43:53.307Z,51.37
2019-01-20T10:44:53.378Z,51.37
2019-01-20T10:47:37.900Z,51.56
2019-01-20T10:49:45.829Z,50.73
2019-01-20T10:51:36.944Z,50.54
2019-01-20T10:52:36.944Z,50.27
2019-01-20T10:53:37.274Z,49.04
2019-01-20T10:54:37.418Z,48.85
2019-01-20T10:55:37.535Z,47.52
2019-01-20T10:56:37.717Z,46.97
2019-01-20T10:57:37.942Z,46.49
2019-01-20T10:58:38.049Z,47.13
2019-01-20T10:59:38.202Z,47.16
2019-01-20T11:00:38.674Z,47.16
2019-01-20T11:01:38.549Z,46.58
2019-01-20T11:02:38.754Z,46.58
2019-01-20T11:03:38.947Z,46.68
2019-01-20T11:04:39.037Z,46.30
2019-01-20T11:05:39.173Z,45.54
2019-01-20T11:06:39.407Z,45.84
2019-01-20T11:07:39.501Z,45.28
2019-01-20T11:08:39.772Z,45.56
2019-01-20T11:09:39.885Z,45.47
2019-01-20T11:10:40.260Z,45.75
2019-01-20T11:11:40.231Z,46.23
2019-01-20T11:12:41.039Z,45.65
2019-01-20T11:13:40.537Z,45.75
2019-01-20T11:14:40.694Z,45.47
2019-01-20T11:15:40.855Z,45.94
2019-01-20T11:16:41.009Z,46.51
2019-01-20T11:17:41.158Z,46.87
2019-01-20T11:18:41.389Z,48.11
2019-01-20T11:19:41.588Z,49.26
2019-01-20T11:20:41.686Z,48.97
2019-01-20T11:21:41.882Z,48.61
2019-01-20T11:22:42.061Z,47.20
2019-01-20T11:23:42.283Z,46.73
2019-01-20T11:24:42.357Z,45.39
2019-01-20T11:25:42.558Z,45.10
2019-01-20T11:26:42.782Z,45.56
2019-01-20T11:27:42.908Z,45.49
2019-01-20T11:28:43.220Z,45.87
2019-01-20T11:29:43.335Z,45.75
2019-01-20T11:30:43.450Z,45.29
2019-01-20T11:31:43.620Z,45.20
2019-01-20T11:32:47.412Z,45.29
2019-01-20T11:33:44.079Z,46.04
2019-01-20T11:34:44.219Z,45.29
2019-01-20T11:35:44.365Z,45.68
2019-01-20T11:36:44.514Z,45.97
2019-01-20T11:37:44.882Z,45.22
2019-01-20T11:38:45.202Z,44.37
2019-01-20T11:39:45.163Z,43.51
2019-01-20T11:40:45.132Z,43.41
2019-01-20T11:41:45.253Z,42.29
2019-01-20T11:42:45.551Z,42.67
2019-01-20T11:43:45.700Z,41.62
2019-01-20T11:44:45.786Z,40.28
2019-01-20T11:45:46.081Z,40.66
2019-01-20T11:46:46.177Z,42.19
2019-01-20T11:47:46.357Z,41.52
2019-01-20T11:48:46.518Z,41.52
2019-01-20T11:49:46.695Z,42.79
2019-01-20T11:50:46.863Z,41.52
2019-01-20T11:51:47.078Z,42.00
2019-01-20T11:52:47.267Z,42.96
2019-01-20T11:53:47.441Z,42.79
2019-01-20T11:54:47.543Z,41.71
2019-01-20T11:55:47.682Z,41.31
2019-01-20T11:56:47.819Z,42.15
2019-01-20T11:57:48.043Z,43.41
2019-01-20T11:58:48.154Z,44.27
2019-01-20T11:59:48.307Z,45.13
2019-01-20T12:00:48.457Z,43.33
2019-01-20T12:01:48.666Z,41.52
2019-01-20T12:02:48.888Z,40.37
2019-01-20T12:03:49.014Z,39.88
2019-01-20T12:04:49.284Z,39.81
2019-01-20T12:05:49.341Z,40.28
2019-01-20T12:06:49.578Z,41.16
2019-01-20T12:07:49.806Z,41.35
2019-01-20T12:08:49.904Z,42.11
2019-01-20T12:09:50.133Z,40.78
2019-01-20T12:10:50.229Z,40.52
2019-01-20T12:11:50.427Z,40.13
2019-01-20T12:12:50.660Z,39.94
2019-01-20T12:13:50.796Z,38.79
2019-01-20T12:14:51.020Z,38.87
2019-01-20T12:15:51.129Z,39.84
2019-01-20T12:16:51.330Z,39.47
2019-01-20T12:17:51.517Z,38.41
2019-01-20T12:18:51.725Z,36.79
2019-01-20T12:19:51.840Z,36.43
2019-01-20T12:20:51.991Z,35.66
2019-01-20T12:21:52.170Z,36.25
2019-01-20T12:22:52.428Z,36.99
2019-01-20T12:23:52.605Z,36.52
2019-01-20T12:24:52.729Z,36.90
2019-01-20T12:25:52.927Z,36.90
2019-01-20T12:26:53.080Z,38.14
2019-01-20T12:27:53.176Z,38.24
2019-01-20T12:28:53.376Z,38.05
2019-01-20T12:29:53.576Z,38.53
2019-01-20T12:30:53.795Z,37.48
2019-01-20T12:31:53.912Z,36.23
2019-01-20T12:32:54.061Z,35.93
2019-01-20T12:34:05.112Z,36.31
2019-01-20T12:35:55.100Z,36.23
2019-01-20T12:36:54.766Z,36.04
2019-01-20T12:37:54.904Z,36.14
2019-01-20T12:38:55.079Z,36.61
2019-01-20T12:39:55.271Z,37.55
2019-01-20T12:40:55.385Z,36.98
2019-01-20T12:41:55.705Z,37.46
2019-01-20T12:42:55.839Z,36.41
2019-01-20T12:43:55.976Z,36.69
2019-01-20T12:44:56.181Z,36.88
2019-01-20T12:45:56.341Z,37.26
2019-01-20T12:46:56.463Z,37.66
2019-01-20T12:47:56.710Z,37.55
2019-01-20T12:48:56.881Z,36.23
2019-01-20T12:49:56.997Z,36.61
2019-01-20T12:50:57.275Z,36.99
2019-01-20T12:51:57.429Z,36.04
2019-01-20T12:52:57.570Z,36.14
2019-01-20T12:53:57.711Z,36.43
2019-01-20T12:54:57.890Z,36.50
2019-01-20T12:55:58.094Z,37.24
2019-01-20T12:56:58.338Z,37.82
2019-01-20T12:57:58.474Z,37.24
2019-01-20T12:58:58.649Z,37.24
2019-01-20T12:59:58.757Z,37.24
2019-01-20T13:00:58.969Z,37.51
2019-01-20T13:01:59.189Z,38.30
2019-01-20T13:02:59.273Z,38.22
2019-01-20T13:03:59.553Z,38.32
2019-01-20T13:04:59.680Z,37.84
2019-01-20T13:05:59.815Z,36.58
2019-01-20T13:07:00.029Z,36.69
2019-01-20T13:08:00.195Z,36.80
2019-01-20T13:09:00.422Z,35.85
2019-01-20T13:10:00.475Z,35.75
2019-01-20T13:11:00.649Z,35.66
2019-01-20T13:12:00.873Z,36.50
2019-01-20T13:13:00.987Z,37.05
2019-01-20T13:14:01.154Z,38.39
2019-01-20T13:15:01.358Z,37.73
2019-01-20T13:16:01.522Z,38.30
2019-01-20T13:17:01.719Z,38.87
2019-01-20T13:18:01.939Z,39.32
2019-01-20T13:19:02.096Z,38.49
2019-01-20T13:20:02.281Z,38.58
2019-01-20T13:21:02.447Z,38.58
2019-01-20T13:22:02.598Z,38.58
2019-01-20T13:23:02.800Z,36.88
2019-01-20T13:24:02.904Z,36.68
2019-01-20T13:25:03.148Z,37.05
2019-01-20T13:26:03.291Z,37.04
2019-01-20T13:27:03.441Z,36.87
2019-01-20T13:28:03.608Z,36.94
2019-01-20T13:29:03.704Z,37.42
2019-01-20T13:30:03.929Z,37.40
2019-01-20T13:31:04.202Z,37.97
2019-01-20T13:32:04.438Z,38.91
2019-01-20T13:33:04.555Z,39.39
2019-01-20T13:34:04.650Z,40.03
2019-01-20T13:35:04.853Z,40.51
2019-01-20T13:36:07.261Z,41.82
2019-01-20T13:37:05.255Z,42.68
2019-01-20T13:38:05.434Z,42.58
2019-01-20T13:39:05.553Z,42.96
2019-01-20T13:40:05.811Z,43.44
2019-01-20T13:41:06.006Z,43.65
2019-01-20T13:42:06.153Z,43.18
2019-01-20T13:43:06.418Z,41.67
2019-01-20T13:44:06.531Z,40.24
2019-01-20T13:45:06.754Z,40.72
2019-01-20T13:46:06.896Z,40.70
2019-01-20T13:47:07.053Z,40.24
2019-01-20T13:48:07.264Z,40.22
2019-01-20T13:49:07.405Z,40.51
2019-01-20T13:50:07.542Z,39.75
2019-01-20T13:51:07.700Z,39.48
2019-01-20T13:52:08.016Z,39.10
2019-01-20T13:53:08.134Z,38.17
2019-01-20T13:54:08.342Z,37.68
2019-01-20T13:55:08.565Z,37.12
2019-01-20T13:56:08.681Z,36.75
2019-01-20T13:57:08.876Z,35.89
2019-01-20T13:58:09.162Z,36.19
2019-01-20T13:59:09.116Z,36.08
2019-01-20T14:00:09.327Z,36.66
2019-01-20T14:01:09.484Z,36.46
2019-01-20T14:02:09.659Z,36.75
2019-01-20T14:03:09.826Z,37.04
2019-01-20T14:04:10.042Z,36.37
2019-01-20T14:05:10.197Z,36.94
2019-01-20T14:06:10.387Z,36.73
2019-01-20T14:07:10.474Z,36.62
2019-01-20T14:08:10.665Z,37.93
2019-01-20T14:09:10.888Z,39.08
2019-01-20T14:10:11.235Z,39.36
2019-01-20T14:11:11.210Z,39.10
2019-01-20T14:12:11.398Z,38.15
2019-01-20T14:13:11.559Z,37.57
2019-01-20T14:14:11.752Z,38.17
2019-01-20T14:17:36.815Z,36.92
2019-01-20T14:18:37.038Z,37.49
2019-01-20T14:21:39.881Z,38.34
2019-01-20T14:22:39.759Z,38.29
2019-01-20T14:23:39.291Z,39.51
2019-01-20T14:24:52.784Z,40.66
2019-01-20T14:26:45.840Z,42.64
2019-01-20T14:27:39.860Z,43.80
2019-01-20T14:30:40.804Z,41.63
2019-01-20T14:31:42.435Z,41.16
2019-01-20T14:32:41.637Z,41.36
2019-01-20T14:33:42.976Z,40.41
2019-01-20T14:34:42.469Z,41.08
2019-01-20T14:35:42.828Z,40.58
2019-01-20T14:36:40.699Z,40.11
2019-01-20T14:37:39.746Z,40.48
2019-01-20T14:38:39.808Z,40.89
2019-01-20T14:39:39.894Z,41.72
2019-01-20T14:40:40.152Z,40.75
2019-01-20T14:41:40.296Z,41.99
2019-01-20T14:42:40.417Z,42.54
2019-01-20T14:43:40.548Z,43.02
2019-01-20T14:44:40.735Z,43.49
2019-01-20T14:45:40.884Z,43.11
2019-01-20T14:46:41.134Z,43.78
2019-01-20T14:47:41.313Z,45.00
2019-01-20T14:48:41.442Z,44.80
2019-01-20T14:49:41.655Z,44.73
2019-01-20T14:50:41.777Z,44.26
2019-01-20T14:51:41.999Z,44.73
2019-01-20T14:52:42.111Z,44.90
2019-01-20T14:53:42.243Z,45.73
2019-01-20T14:54:42.436Z,45.71
2019-01-20T14:55:42.640Z,46.47
2019-01-20T14:56:42.769Z,47.42
2019-01-20T14:57:42.899Z,48.37
2019-01-20T14:58:43.122Z,48.85
2019-01-20T14:59:43.294Z,48.85
2019-01-20T15:00:43.556Z,48.75
2019-01-20T15:01:43.657Z,48.58
2019-01-20T15:02:43.820Z,47.63
2019-01-20T15:03:44.026Z,47.44
2019-01-20T15:04:44.138Z,47.25
2019-01-20T15:05:44.432Z,46.40
2019-01-20T15:06:44.497Z,45.45
2019-01-20T15:07:44.681Z,45.26
2019-01-20T15:08:44.878Z,45.71
2019-01-20T15:09:45.037Z,46.64
2019-01-20T15:10:45.204Z,48.13
2019-01-20T15:11:46.391Z,49.53
2019-01-20T15:12:45.564Z,50.76
2019-01-20T15:13:45.763Z,51.68
2019-01-20T15:14:45.919Z,53.11
2019-01-20T15:15:46.044Z,54.03
2019-01-20T15:16:46.235Z,54.79
2019-01-20T15:17:46.422Z,55.71
2019-01-20T15:18:46.557Z,56.56
2019-01-20T15:19:46.739Z,57.60
2019-01-20T15:20:46.983Z,57.89
2019-01-20T15:21:47.011Z,58.84
2019-01-20T15:22:47.286Z,59.59
2019-01-20T15:23:47.383Z,60.25
2019-01-20T15:24:47.562Z,60.51
2019-01-20T15:25:47.701Z,60.32
2019-01-20T15:26:47.901Z,60.89
2019-01-20T15:27:48.055Z,61.83
2019-01-20T15:28:48.236Z,62.12
2019-01-20T15:29:48.387Z,62.78
2019-01-20T15:30:48.545Z,62.97
2019-01-20T15:31:48.706Z,62.88
2019-01-20T15:32:48.925Z,63.45
2019-01-20T15:33:49.052Z,64.01
2019-01-20T15:34:49.208Z,64.39
2019-01-20T15:35:49.349Z,64.39
2019-01-20T15:36:49.511Z,64.30
2019-01-20T15:37:49.734Z,64.01
2019-01-20T15:38:49.876Z,64.49
2019-01-20T15:39:50.044Z,65.40
2019-01-20T15:40:50.140Z,65.81
2019-01-20T15:41:50.441Z,65.40
2019-01-20T15:42:50.477Z,65.88
2019-01-20T15:43:50.696Z,65.59
2019-01-20T15:44:50.812Z,66.06
2019-01-20T15:45:50.986Z,66.16
2019-01-20T15:46:51.207Z,67.01
2019-01-20T15:47:52.563Z,67.11
2019-01-20T15:48:51.493Z,67.39
2019-01-20T15:49:51.719Z,67.96
2019-01-20T15:50:51.821Z,68.62
2019-01-20T15:51:52.006Z,68.62
2019-01-20T15:52:52.232Z,68.81
2019-01-20T15:53:52.359Z,68.33
2019-01-20T15:54:52.455Z,68.52
2019-01-20T15:55:52.607Z,69.00
2019-01-20T15:56:52.770Z,68.43
2019-01-20T15:57:52.981Z,69.19
2019-01-20T15:58:53.020Z,69.66
2019-01-20T15:59:53.213Z,70.61
2019-01-20T16:00:53.395Z,71.04
2019-01-20T16:01:53.629Z,71.80
2019-01-20T16:02:53.743Z,71.42
2019-01-20T16:03:53.945Z,71.99
2019-01-20T16:04:54.111Z,72.66
2019-01-20T16:05:54.296Z,73.13
2019-01-20T16:06:54.418Z,73.69
2019-01-20T16:07:54.575Z,74.17
2019-01-20T16:08:54.705Z,73.60
2019-01-20T16:09:54.938Z,73.13
2019-01-20T16:10:55.021Z,73.22
2019-01-20T16:11:55.156Z,73.22
2019-01-20T16:12:55.411Z,72.66
2019-01-20T16:13:56.405Z,71.14
2019-01-20T16:14:55.796Z,71.14
2019-01-20T16:15:55.923Z,71.23
2019-01-20T16:16:56.134Z,72.09
2019-01-20T16:17:56.230Z,72.28
2019-01-20T16:18:56.418Z,73.03
2019-01-20T16:19:56.553Z,73.13
2019-01-20T16:20:56.850Z,73.22
2019-01-20T16:21:57.004Z,73.88
2019-01-20T16:22:57.097Z,73.79
2019-01-20T16:23:57.312Z,73.98
2019-01-20T16:24:57.493Z,72.99
2019-01-20T16:25:57.558Z,73.60
2019-01-20T16:27:01.011Z,73.75
2019-01-20T16:27:57.897Z,73.75
2019-01-20T16:28:58.480Z,73.94
2019-01-20T16:29:58.249Z,73.66
2019-01-20T16:30:58.449Z,73.85
2019-01-20T16:31:58.634Z,74.51
2019-01-20T16:32:58.710Z,74.13
2019-01-20T16:33:58.881Z,74.79
2019-01-20T16:34:59.080Z,74.69
2019-01-20T16:35:59.266Z,74.98
2019-01-20T16:36:59.412Z,74.88
2019-01-20T16:37:59.592Z,74.98
2019-01-20T16:38:59.750Z,75.64
2019-01-20T16:39:59.875Z,75.45
2019-01-20T16:41:00.034Z,74.98
2019-01-20T16:42:00.165Z,74.98
2019-01-20T16:43:00.405Z,74.51
2019-01-20T16:44:00.510Z,74.60
2019-01-20T16:45:00.674Z,73.28
2019-01-20T16:46:00.818Z,72.71
2019-01-20T16:47:01.026Z,73.09
2019-01-20T16:48:01.237Z,73.56
2019-01-20T16:49:01.424Z,73.75
2019-01-20T16:50:01.586Z,74.04
2019-01-20T16:51:01.624Z,74.79
2019-01-20T16:52:01.759Z,74.79
2019-01-20T16:53:02.052Z,73.85
2019-01-20T16:54:02.167Z,72.90
2019-01-20T16:55:02.394Z,72.90
2019-01-20T16:56:02.475Z,72.80
2019-01-20T16:57:02.647Z,73.66
2019-01-20T16:58:02.804Z,73.75
2019-01-20T16:59:03.017Z,73.66
2019-01-20T17:00:03.226Z,73.66
2019-01-20T17:01:03.436Z,73.66
2019-01-20T17:02:03.506Z,74.60
2019-01-20T17:03:03.647Z,74.69
2019-01-20T17:04:03.824Z,76.02
2019-01-20T17:05:03.967Z,76.02
2019-01-20T17:06:04.128Z,76.40
2019-01-20T17:07:04.320Z,77.06
2019-01-20T17:08:04.438Z,76.59
2019-01-20T17:09:04.573Z,76.50
2019-01-20T17:10:04.803Z,76.55
2019-01-20T17:11:04.976Z,76.45
2019-01-20T17:12:05.058Z,77.21
2019-01-20T17:13:05.243Z,76.97
2019-01-20T17:14:05.416Z,76.97
2019-01-20T17:15:05.548Z,77.06
2019-01-20T17:16:05.657Z,76.78
2019-01-20T17:17:05.808Z,76.74
2019-01-20T17:18:06.110Z,77.06
2019-01-20T17:19:06.195Z,76.59
2019-01-20T17:20:06.343Z,76.45
2019-01-20T17:21:06.559Z,77.02
2019-01-20T17:22:06.651Z,76.83
2019-01-20T17:23:06.781Z,76.55
2019-01-20T17:24:07.023Z,77.21
2019-01-20T17:25:07.159Z,76.45
2019-01-20T17:26:07.395Z,76.93
2019-01-20T17:27:07.543Z,77.50
2019-01-20T17:28:07.720Z,77.69
2019-01-20T17:29:07.863Z,78.53
2019-01-20T17:30:07.976Z,78.16
2019-01-20T17:31:08.213Z,77.50